createdAt,value
2019-03-18T00:02:05.517Z,3.83
2019-03-18T00:06:12.441Z,3.78
2019-03-18T00:10:19.391Z,3.75
2019-03-18T00:14:26.266Z,3.58
2019-03-18T00:18:34.158Z,3.56
2019-03-18T00:22:40.970Z,3.58
2019-03-18T00:26:49.570Z,3.37
2019-03-18T00:30:56.565Z,3.38
2019-03-18T00:35:03.522Z,3.42
2019-03-18T00:39:10.783Z,3.34
2019-03-18T00:43:17.649Z,3.40
2019-03-18T00:47:24.612Z,3.37
2019-03-18T00:51:31.482Z,3.31
2019-03-18T00:55:38.331Z,3.34
2019-03-18T00:59:45.233Z,3.27
2019-03-18T01:03:52.102Z,3.20
2019-03-18T01:07:59.060Z,3.20
2019-03-18T01:12:05.944Z,3.15
2019-03-18T01:16:12.837Z,3.04
2019-03-18T01:20:19.795Z,3.01
2019-03-18T01:24:26.663Z,3.06
2019-03-18T01:28:33.473Z,3.03
2019-03-18T01:32:40.321Z,3.01
2019-03-18T01:36:47.152Z,3.04
2019-03-18T01:40:53.987Z,2.99
2019-03-18T01:45:00.880Z,3.12
2019-03-18T01:49:07.770Z,3.06
2019-03-18T01:53:14.662Z,3.08
2019-03-18T01:57:21.494Z,3.15
2019-03-18T02:01:28.326Z,3.09
2019-03-18T02:05:35.245Z,3.13
2019-03-18T02:09:42.039Z,3.10
2019-03-18T02:13:48.888Z,3.10
2019-03-18T02:17:56.870Z,3.06
2019-03-18T02:22:03.697Z,3.05
2019-03-18T02:26:10.694Z,3.03
2019-03-18T02:30:17.671Z,3.02
2019-03-18T02:34:24.608Z,3.04
2019-03-18T02:38:31.494Z,3.01
2019-03-18T02:42:39.403Z,3.04
2019-03-18T02:46:47.345Z,3.04
2019-03-18T02:50:54.219Z,3.04
2019-03-18T02:55:02.155Z,3.11
2019-03-18T02:59:11.387Z,3.13
2019-03-18T03:03:18.284Z,3.25
2019-03-18T03:07:26.278Z,3.29
2019-03-18T03:11:34.435Z,3.34
2019-03-18T03:15:41.578Z,3.32
2019-03-18T03:19:48.456Z,3.10
2019-03-18T03:23:55.275Z,3.11
2019-03-18T03:28:03.911Z,3.10
2019-03-18T03:32:10.721Z,3.19
2019-03-18T03:36:17.715Z,3.09
2019-03-18T03:40:24.652Z,3.16
2019-03-18T03:44:31.544Z,3.12
2019-03-18T03:48:38.443Z,3.27
2019-03-18T03:52:45.368Z,3.29
2019-03-18T03:56:53.527Z,3.32
2019-03-18T04:01:00.454Z,3.40
2019-03-18T04:05:07.522Z,3.33
2019-03-18T04:09:14.405Z,3.28
2019-03-18T04:13:21.402Z,3.33
2019-03-18T04:17:28.203Z,3.40
2019-03-18T04:21:35.071Z,3.37
2019-03-18T04:25:41.859Z,3.42
2019-03-18T04:29:48.680Z,3.48
2019-03-18T04:33:55.570Z,3.49
2019-03-18T04:38:05.414Z,3.55
2019-03-18T04:42:12.289Z,3.59
2019-03-18T04:46:19.159Z,3.60
2019-03-18T04:50:27.374Z,3.63
2019-03-18T04:54:34.513Z,3.60
2019-03-18T04:58:41.331Z,3.69
2019-03-18T05:02:48.322Z,3.65
2019-03-18T05:06:57.106Z,3.86
2019-03-18T05:11:04.052Z,3.89
2019-03-18T05:15:11.773Z,3.84
2019-03-18T05:19:19.016Z,4.00
2019-03-18T05:23:26.237Z,3.94
2019-03-18T05:27:33.171Z,3.95
2019-03-18T05:31:40.310Z,3.97
2019-03-18T05:35:47.335Z,3.90
2019-03-18T05:39:54.251Z,4.02
2019-03-18T05:44:02.355Z,4.12
2019-03-18T05:48:09.474Z,4.01
2019-03-18T05:52:19.782Z,3.88
2019-03-18T05:57:26.746Z,3.84
2019-03-18T06:01:23.552Z,3.89
2019-03-18T06:05:34.345Z,3.94
2019-03-18T06:09:41.170Z,3.84
2019-03-18T06:13:48.090Z,3.80
2019-03-18T06:17:56.689Z,3.95
2019-03-18T06:22:03.631Z,3.97
2019-03-18T06:26:10.637Z,4.00
2019-03-18T06:30:18.038Z,3.98
2019-03-18T06:34:25.478Z,4.09
2019-03-18T06:38:32.732Z,4.09
2019-03-18T06:42:40.380Z,4.01
2019-03-18T06:46:47.393Z,4.25
2019-03-18T06:50:54.496Z,4.21
2019-03-18T06:55:01.658Z,4.34
2019-03-18T06:59:08.858Z,4.29
2019-03-18T07:03:15.758Z,4.44
2019-03-18T07:07:22.566Z,4.39
2019-03-18T07:11:29.672Z,4.53
2019-03-18T07:15:36.641Z,4.53
2019-03-18T07:19:43.728Z,4.68
2019-03-18T07:23:50.664Z,4.58
2019-03-18T07:27:57.915Z,4.55
2019-03-18T07:32:06.195Z,4.75
2019-03-18T07:36:14.392Z,4.77
2019-03-18T07:40:21.351Z,4.80
2019-03-18T07:44:28.125Z,4.95
2019-03-18T07:48:34.913Z,4.96
2019-03-18T07:52:41.902Z,5.02
2019-03-18T07:56:48.731Z,5.17
2019-03-18T08:00:55.782Z,5.30
2019-03-18T08:05:02.769Z,5.37
2019-03-18T08:09:10.990Z,5.27
2019-03-18T08:13:20.479Z,5.15
2019-03-18T08:17:27.527Z,5.26
2019-03-18T08:21:34.400Z,5.44
2019-03-18T08:25:41.292Z,5.58
2019-03-18T08:29:48.156Z,5.64
2019-03-18T08:33:55.135Z,5.38
2019-03-18T08:38:01.973Z,5.51
2019-03-18T08:42:08.913Z,5.54
2019-03-18T08:46:15.727Z,5.54
2019-03-18T08:50:22.849Z,5.74
2019-03-18T08:54:29.734Z,5.72
2019-03-18T08:58:36.633Z,6.02
2019-03-18T09:02:43.468Z,5.99
2019-03-18T09:06:50.387Z,5.99
2019-03-18T09:10:57.376Z,6.04
2019-03-18T09:15:05.616Z,6.17
2019-03-18T09:19:12.606Z,6.20
2019-03-18T09:23:19.580Z,6.63
2019-03-18T09:27:27.457Z,6.59
2019-03-18T09:31:36.423Z,6.56
2019-03-18T09:35:43.405Z,6.57
2019-03-18T09:39:50.337Z,6.75
2019-03-18T09:43:57.365Z,6.90
2019-03-18T09:48:04.389Z,6.87
2019-03-18T09:52:11.227Z,6.62
2019-03-18T09:56:18.180Z,6.66
2019-03-18T10:00:25.045Z,6.78
2019-03-18T10:04:31.932Z,6.90
2019-03-18T10:08:38.820Z,6.73
2019-03-18T10:12:45.712Z,6.74
2019-03-18T10:16:52.654Z,7.40
2019-03-18T10:20:59.581Z,7.20
2019-03-18T10:25:06.850Z,7.21
2019-03-18T10:29:13.981Z,7.88
2019-03-18T10:33:20.871Z,7.64
2019-03-18T10:37:27.885Z,7.98
2019-03-18T10:41:37.854Z,8.13
2019-03-18T10:45:44.943Z,8.24
2019-03-18T10:49:52.152Z,8.52
2019-03-18T10:53:59.421Z,8.22
2019-03-18T10:58:06.338Z,8.72
2019-03-18T11:02:13.279Z,8.81
2019-03-18T11:06:20.300Z,8.64
2019-03-18T11:10:27.289Z,8.73
2019-03-18T11:14:34.202Z,9.11
2019-03-18T11:18:41.020Z,9.02
2019-03-18T11:22:47.953Z,9.68
2019-03-18T11:26:55.432Z,9.35
2019-03-18T11:31:02.466Z,9.02
2019-03-18T11:35:10.257Z,8.98
2019-03-18T11:39:17.189Z,8.78
2019-03-18T11:43:24.233Z,8.01
2019-03-18T11:47:31.238Z,7.95
2019-03-18T11:51:38.301Z,7.51
2019-03-18T11:55:45.197Z,7.34
2019-03-18T11:59:52.082Z,7.27
2019-03-18T12:03:58.947Z,7.42
2019-03-18T12:08:05.865Z,9.15
2019-03-18T12:12:27.418Z,8.62
2019-03-18T12:16:36.191Z,8.45
2019-03-18T12:20:43.255Z,8.73
2019-03-18T12:24:50.289Z,8.49
2019-03-18T12:28:57.217Z,10.31
2019-03-18T12:33:04.202Z,9.98
2019-03-18T12:37:11.091Z,9.24
2019-03-18T12:41:18.257Z,9.31
2019-03-18T12:45:25.892Z,8.94
2019-03-18T12:49:32.862Z,9.03
2019-03-18T12:53:39.766Z,9.26
2019-03-18T12:57:46.557Z,9.55
2019-03-18T13:01:53.579Z,9.75
2019-03-18T13:06:00.512Z,10.15
2019-03-18T13:10:10.191Z,11.55
2019-03-18T13:14:17.079Z,12.44
2019-03-18T13:18:23.839Z,13.15
2019-03-18T13:22:31.871Z,14.27
2019-03-18T13:26:38.695Z,15.17
2019-03-18T13:30:45.637Z,14.43
2019-03-18T13:34:52.537Z,13.20
2019-03-18T13:38:59.337Z,12.33
2019-03-18T13:43:06.216Z,11.49
2019-03-18T13:47:13.047Z,11.41
2019-03-18T13:51:21.228Z,11.99
2019-03-18T13:55:28.354Z,12.77
2019-03-18T13:59:35.359Z,11.75
2019-03-18T14:03:42.166Z,11.40
2019-03-18T14:07:59.368Z,11.34
2019-03-18T14:11:57.957Z,10.92
2019-03-18T14:16:04.919Z,10.36
2019-03-18T14:20:14.085Z,10.67
2019-03-18T14:24:21.005Z,11.71
2019-03-18T14:28:27.849Z,12.54
2019-03-18T14:32:34.798Z,12.08
2019-03-18T14:36:41.686Z,12.33
2019-03-18T14:40:48.576Z,12.16
2019-03-18T14:44:55.537Z,12.37
2019-03-18T14:49:02.537Z,12.11
2019-03-18T14:53:10.676Z,12.12
2019-03-18T14:57:17.666Z,11.65
2019-03-18T15:01:24.745Z,11.03
2019-03-18T15:05:31.806Z,11.48
2019-03-18T15:09:38.744Z,10.84
2019-03-18T15:13:46.936Z,11.07
2019-03-18T15:17:54.140Z,10.94
2019-03-18T15:22:01.129Z,10.86
2019-03-18T15:26:18.488Z,10.76
2019-03-18T15:30:26.255Z,10.37
2019-03-18T15:34:33.605Z,10.38
2019-03-18T15:38:41.940Z,9.48
2019-03-18T15:42:48.930Z,8.99
2019-03-18T15:47:00.754Z,8.56
2019-03-18T15:51:09.134Z,8.42
2019-03-18T15:55:16.158Z,8.40
2019-03-18T15:59:23.135Z,8.22
2019-03-18T16:03:30.019Z,8.22
2019-03-18T16:07:37.008Z,8.15
2019-03-18T16:11:43.927Z,8.22
2019-03-18T16:15:54.708Z,8.26
2019-03-18T16:20:02.001Z,8.16
2019-03-18T16:24:08.881Z,8.26
2019-03-18T16:28:15.768Z,8.30
2019-03-18T16:32:22.653Z,8.59
2019-03-18T16:36:30.122Z,8.68
2019-03-18T16:40:37.129Z,8.75
2019-03-18T16:44:45.893Z,8.54
2019-03-18T16:48:56.162Z,8.51
2019-03-18T16:53:03.260Z,8.81
2019-03-18T16:57:10.080Z,8.59
2019-03-18T17:01:28.937Z,8.54
2019-03-18T17:05:36.501Z,8.42
2019-03-18T17:09:43.324Z,8.53
2019-03-18T17:13:50.099Z,8.36
2019-03-18T17:17:58.234Z,8.31
2019-03-18T17:22:05.220Z,8.24
2019-03-18T17:26:12.118Z,8.20
2019-03-18T17:30:19.479Z,8.01
2019-03-18T17:34:26.296Z,8.02
2019-03-18T17:38:33.291Z,7.82
2019-03-18T17:42:40.186Z,7.72
2019-03-18T17:46:47.242Z,7.64
2019-03-18T17:50:54.278Z,7.54
2019-03-18T17:55:01.199Z,7.47
2019-03-18T17:59:09.545Z,7.44
2019-03-18T18:03:18.626Z,7.35
2019-03-18T18:07:27.860Z,7.30
2019-03-18T18:11:37.314Z,7.23
2019-03-18T18:15:44.203Z,7.11
2019-03-18T18:19:51.382Z,7.15
2019-03-18T18:23:59.865Z,7.06
2019-03-18T18:28:06.819Z,7.10
2019-03-18T18:32:13.872Z,6.96
2019-03-18T18:36:20.835Z,6.80
2019-03-18T18:40:32.405Z,6.83
2019-03-18T18:44:39.865Z,6.78
2019-03-18T18:48:46.827Z,6.70
2019-03-18T18:52:53.902Z,6.68
2019-03-18T18:57:01.735Z,6.62
2019-03-18T19:01:09.731Z,6.49
2019-03-18T19:05:17.388Z,6.44
2019-03-18T19:09:24.717Z,6.43
2019-03-18T19:13:31.750Z,6.61
2019-03-18T19:17:38.729Z,6.52
2019-03-18T19:21:47.345Z,6.43
2019-03-18T19:25:54.511Z,6.31
2019-03-18T19:30:08.640Z,6.38
2019-03-18T19:34:15.972Z,6.38
2019-03-18T19:38:25.649Z,6.27
2019-03-18T19:42:32.880Z,6.27
2019-03-18T19:46:40.076Z,6.21
2019-03-18T19:50:46.948Z,6.18
2019-03-18T19:54:54.045Z,6.14
2019-03-18T19:59:04.309Z,6.07
2019-03-18T20:03:11.149Z,6.08
2019-03-18T20:07:19.335Z,6.11
2019-03-18T20:11:26.293Z,6.10
2019-03-18T20:15:33.255Z,6.12
2019-03-18T20:19:40.162Z,6.11
2019-03-18T20:23:47.495Z,6.15
2019-03-18T20:27:55.143Z,6.19
2019-03-18T20:32:02.125Z,6.23
2019-03-18T20:36:09.198Z,6.32
2019-03-18T20:40:17.811Z,6.28
2019-03-18T20:44:24.798Z,6.26
2019-03-18T20:48:31.877Z,6.32
2019-03-18T20:52:38.950Z,6.32
2019-03-18T20:56:45.990Z,6.44
2019-03-18T21:00:53.163Z,6.25
2019-03-18T21:05:00.767Z,6.22
2019-03-18T21:09:08.928Z,6.30
2019-03-18T21:13:17.187Z,6.16
2019-03-18T21:17:24.330Z,6.13
2019-03-18T21:21:31.563Z,6.05
2019-03-18T21:25:38.504Z,5.98
2019-03-18T21:29:45.430Z,6.20
2019-03-18T21:33:52.346Z,6.18
2019-03-18T21:38:00.323Z,6.22
2019-03-18T21:42:07.272Z,6.14
2019-03-18T21:46:18.512Z,6.03
2019-03-18T21:50:25.653Z,6.02
2019-03-18T21:54:34.386Z,5.94
2019-03-18T21:58:43.611Z,5.85
2019-03-18T22:02:52.132Z,5.85
2019-03-18T22:06:59.068Z,5.77
2019-03-18T22:11:05.962Z,5.65
2019-03-18T22:15:14.111Z,5.63
2019-03-18T22:19:20.947Z,5.58
2019-03-18T22:23:27.834Z,5.48
2019-03-18T22:27:34.656Z,5.48
2019-03-18T22:31:41.589Z,5.38
2019-03-18T22:35:50.640Z,5.33
2019-03-18T22:39:57.550Z,5.25
2019-03-18T22:44:04.474Z,5.21
2019-03-18T22:48:11.470Z,5.23
2019-03-18T22:52:21.526Z,5.09
2019-03-18T22:56:28.389Z,5.06
2019-03-18T23:00:44.386Z,5.01
2019-03-18T23:04:51.341Z,4.95
2019-03-18T23:08:58.211Z,4.98
2019-03-18T23:13:05.158Z,4.94
2019-03-18T23:17:11.974Z,4.90
2019-03-18T23:21:18.901Z,4.87
2019-03-18T23:25:26.097Z,4.81
2019-03-18T23:29:33.250Z,4.79
2019-03-18T23:33:40.153Z,4.71
2019-03-18T23:37:47.132Z,4.64
2019-03-18T23:41:54.209Z,4.46
2019-03-18T23:46:01.114Z,4.49
2019-03-18T23:50:08.550Z,4.52
2019-03-18T23:54:15.827Z,4.50
2019-03-18T23:58:23.030Z,4.41
